Time;durP1;ratioP1;P1;durP2;ratioP2;P2;SDS_P1;SDS_P2;PMS_P1;PMS_P2;Temp;Humidity;BMP_temperature;BMP_pressure;BME280_temperature;BME280_humidity;BME280_pressure;Samples;Min_cycle;Max_cycle;Signal;HPM_P1;HPM_P2
2021/03/10 00:00:30;;;;;;;6.32;1.88;;;3.10;99.90;;;;;;10198223;29;20043;-49
2021/03/10 00:05:51;;;;;;;4.43;2.47;;;3.20;99.90;;;;;;10201169;28;20046;-49
2021/03/10 00:11:12;;;;;;;3.55;1.65;;;3.30;99.90;;;;;;10196071;28;20443;-49
2021/03/10 00:16:32;;;;;;;6.95;1.67;;;3.40;99.90;;;;;;10196643;28;20527;-49
2021/03/10 00:21:53;;;;;;;3.75;2.22;;;3.50;99.90;;;;;;10198539;29;20044;-49
2021/03/10 00:27:23;;;;;;;6.43;2.42;;;3.60;99.90;;;;;;10196283;29;20488;-49
2021/03/10 00:32:44;;;;;;;4.60;1.83;;;3.70;99.90;;;;;;10196491;28;20067;-49
2021/03/10 00:38:05;;;;;;;3.90;1.70;;;3.70;99.90;;;;;;10195071;28;20575;-50
2021/03/10 00:43:26;;;;;;;4.35;2.30;;;3.80;99.90;;;;;;10199153;29;20050;-49
2021/03/10 00:48:47;;;;;;;12.25;2.20;;;3.80;99.90;;;;;;10204871;28;20138;-49
2021/03/10 00:54:08;;;;;;;5.13;2.00;;;3.80;99.90;;;;;;10203138;28;20273;-49
2021/03/10 00:59:29;;;;;;;5.90;1.75;;;3.80;99.90;;;;;;10202588;28;20315;-49
2021/03/10 01:04:50;;;;;;;5.82;1.83;;;3.90;99.90;;;;;;10201482;28;20044;-50
2021/03/10 01:10:13;;;;;;;5.63;1.92;;;4.00;99.90;;;;;;10203211;28;20036;-49
2021/03/10 01:15:34;;;;;;;3.80;1.60;;;4.00;99.90;;;;;;10202200;28;20048;-49
2021/03/10 01:20:55;;;;;;;3.25;1.48;;;4.10;99.90;;;;;;10205136;28;20036;-49
2021/03/10 01:26:16;;;;;;;4.68;1.95;;;4.10;99.90;;;;;;10202074;28;20163;-50
2021/03/10 01:31:37;;;;;;;4.93;1.65;;;4.10;99.90;;;;;;10202038;28;20031;-49
2021/03/10 01:36:58;;;;;;;5.30;2.33;;;4.10;99.90;;;;;;10202003;28;20055;-50
2021/03/10 01:42:19;;;;;;;7.43;2.33;;;4.20;99.90;;;;;;10203876;28;20050;-50
2021/03/10 01:47:43;;;;;;;9.00;3.17;;;4.20;99.90;;;;;;10205289;28;20479;-49
2021/03/10 01:53:04;;;;;;;5.43;2.03;;;4.30;99.90;;;;;;10207392;28;20106;-49
2021/03/10 01:58:25;;;;;;;6.53;3.55;;;4.40;99.90;;;;;;10203927;28;20042;-50
2021/03/10 02:03:47;;;;;;;4.97;2.13;;;4.40;99.90;;;;;;10202522;28;20082;-50
2021/03/10 02:09:34;;;;;;;7.35;2.72;;;4.40;99.90;;;;;;10203203;28;20067;-50
2021/03/10 02:15:24;;;;;;;6.57;2.20;;;4.50;99.90;;;;;;10201411;28;20514;-50
2021/03/10 02:20:51;;;;;;;7.07;2.85;;;4.50;99.90;;;;;;10205160;28;20043;-50
2021/03/10 02:26:40;;;;;;;6.47;3.03;;;4.60;99.90;;;;;;10200965;28;20040;-50
2021/03/10 02:32:02;;;;;;;6.18;2.30;;;4.70;99.90;;;;;;10206715;28;20492;-50
2021/03/10 02:37:23;;;;;;;8.05;3.22;;;4.70;99.90;;;;;;10200248;28;20047;-50
2021/03/10 02:42:46;;;;;;;11.02;3.25;;;4.70;99.90;;;;;;10202559;28;20428;-50
2021/03/10 02:48:10;;;;;;;6.72;2.92;;;4.70;99.90;;;;;;10204063;28;20119;-50
2021/03/10 02:53:31;;;;;;;8.15;3.00;;;4.70;99.90;;;;;;10203296;28;20506;-50
2021/03/10 02:58:53;;;;;;;7.32;3.60;;;4.70;99.90;;;;;;10199221;28;20044;-50
2021/03/10 03:04:14;;;;;;;9.45;3.88;;;4.70;99.90;;;;;;10201921;28;20589;-50
2021/03/10 03:09:36;;;;;;;7.40;3.10;;;4.60;99.90;;;;;;10205904;28;20090;-50
2021/03/10 03:14:57;;;;;;;8.40;3.10;;;4.60;99.90;;;;;;10203609;28;20039;-50
2021/03/10 03:20:21;;;;;;;9.40;3.53;;;4.70;99.90;;;;;;10205070;28;20167;-50
2021/03/10 03:25:42;;;;;;;8.15;3.30;;;4.60;99.90;;;;;;10196801;28;20453;-50
2021/03/10 03:31:04;;;;;;;10.48;4.72;;;4.60;99.90;;;;;;10202345;28;20054;-50
2021/03/10 03:36:25;;;;;;;11.27;3.35;;;4.60;99.90;;;;;;10198302;28;20547;-50
2021/03/10 03:41:47;;;;;;;10.93;4.53;;;4.60;99.90;;;;;;10199879;29;20046;-50
2021/03/10 03:47:09;;;;;;;15.10;4.63;;;4.60;99.90;;;;;;10201398;28;20122;-50
2021/03/10 03:52:30;;;;;;;11.60;3.50;;;4.60;99.90;;;;;;10203523;28;20058;-50
2021/03/10 03:57:51;;;;;;;9.10;3.13;;;4.60;99.90;;;;;;10195233;28;20066;-50
2021/03/10 04:03:12;;;;;;;10.05;4.05;;;4.70;99.90;;;;;;10201459;28;20459;-50
2021/03/10 04:08:33;;;;;;;10.73;3.60;;;4.70;99.90;;;;;;10205469;29;20322;-50
2021/03/10 04:13:54;;;;;;;9.52;3.60;;;4.70;99.90;;;;;;10198661;28;20114;-50
2021/03/10 04:19:15;;;;;;;10.82;3.70;;;4.80;99.90;;;;;;10201606;28;20028;-50
2021/03/10 04:24:36;;;;;;;12.25;4.95;;;4.80;99.90;;;;;;10204467;28;20036;-50
2021/03/10 04:29:57;;;;;;;17.90;4.88;;;4.90;99.90;;;;;;10204411;28;20050;-50
2021/03/10 04:35:19;;;;;;;10.20;4.20;;;4.90;99.90;;;;;;10206542;29;20105;-50
2021/03/10 04:40:40;;;;;;;16.90;6.13;;;4.90;99.90;;;;;;10208371;28;20508;-50
2021/03/10 04:46:02;;;;;;;16.65;5.20;;;4.90;99.90;;;;;;10207869;28;20051;-50
2021/03/10 04:51:22;;;;;;;20.60;5.65;;;4.80;99.90;;;;;;10207618;28;20040;-50
2021/03/10 04:56:43;;;;;;;18.27;4.55;;;4.80;99.90;;;;;;10209808;28;20048;-50
2021/03/10 05:02:04;;;;;;;17.73;6.18;;;4.70;99.90;;;;;;10206238;28;20047;-50
2021/03/10 05:07:25;;;;;;;26.75;7.22;;;4.70;99.90;;;;;;10204252;28;20502;-50
2021/03/10 05:12:46;;;;;;;15.23;6.55;;;4.70;99.90;;;;;;10205512;28;20472;-50
2021/03/10 05:18:07;;;;;;;27.40;6.43;;;4.80;99.90;;;;;;10206364;28;20042;-50
2021/03/10 05:23:28;;;;;;;29.60;7.88;;;4.70;99.90;;;;;;10204901;28;20032;-50
2021/03/10 05:28:49;;;;;;;15.73;7.07;;;4.70;99.90;;;;;;10205323;28;20032;-50
2021/03/10 05:34:10;;;;;;;21.10;7.60;;;4.70;99.90;;;;;;10203493;28;20051;-50
2021/03/10 05:39:31;;;;;;;28.00;6.90;;;4.60;99.90;;;;;;10207865;28;20191;-50
2021/03/10 05:44:52;;;;;;;26.67;7.00;;;4.60;99.90;;;;;;10205715;28;20056;-50
2021/03/10 05:50:15;;;;;;;20.08;8.55;;;4.60;99.90;;;;;;10201661;28;20035;-50
2021/03/10 05:55:38;;;;;;;19.75;6.55;;;4.70;99.90;;;;;;10206949;28;20040;-50
2021/03/10 06:00:59;;;;;;;27.42;9.32;;;4.60;99.90;;;;;;10205305;28;20559;-51
2021/03/10 06:06:20;;;;;;;23.00;9.48;;;4.60;99.90;;;;;;10207708;28;20051;-50
2021/03/10 06:11:53;;;;;;;24.17;8.77;;;4.50;99.90;;;;;;10202170;28;20140;-50
2021/03/10 06:17:15;;;;;;;21.20;6.63;;;4.50;99.90;;;;;;10208413;28;20075;-50
2021/03/10 06:22:36;;;;;;;23.83;9.27;;;4.50;99.90;;;;;;10203800;28;20124;-50
2021/03/10 06:27:58;;;;;;;24.35;8.38;;;4.50;99.90;;;;;;10210713;28;20043;-50
2021/03/10 06:33:23;;;;;;;27.85;8.88;;;4.60;99.90;;;;;;10206138;28;20388;-50
2021/03/10 06:38:50;;;;;;;25.75;8.98;;;4.60;99.90;;;;;;10200531;28;20040;-50
2021/03/10 06:44:20;;;;;;;19.80;6.40;;;4.60;99.90;;;;;;10203186;28;20427;-50
2021/03/10 06:49:50;;;;;;;28.42;8.75;;;4.70;99.90;;;;;;10202500;28;20435;-50
2021/03/10 06:55:11;;;;;;;18.40;7.70;;;4.70;99.90;;;;;;10196095;29;20329;-50
2021/03/10 07:00:32;;;;;;;26.20;10.07;;;4.70;99.90;;;;;;10201833;29;20713;-50
2021/03/10 07:05:54;;;;;;;18.60;7.82;;;4.70;99.90;;;;;;10202685;28;20078;-50
2021/03/10 07:11:15;;;;;;;19.42;8.07;;;4.70;99.90;;;;;;10204154;28;20498;-50
2021/03/10 07:16:36;;;;;;;21.67;8.02;;;4.70;99.90;;;;;;10204135;28;20457;-50
2021/03/10 07:22:03;;;;;;;27.52;8.02;;;4.70;99.90;;;;;;10198943;28;20448;-49
2021/03/10 07:27:25;;;;;;;27.38;8.90;;;4.70;99.90;;;;;;10198581;28;20043;-50
2021/03/10 07:32:46;;;;;;;23.63;7.13;;;4.80;99.90;;;;;;10204814;28;20247;-50
2021/03/10 07:38:07;;;;;;;21.98;8.13;;;4.80;99.90;;;;;;10204585;29;20047;-50
2021/03/10 07:43:52;;;;;;;21.77;8.07;;;4.80;99.90;;;;;;10200096;29;20554;-49
2021/03/10 07:49:23;;;;;;;19.65;7.55;;;4.90;99.90;;;;;;10200277;29;20039;-50
2021/03/10 07:54:43;;;;;;;19.98;8.73;;;5.00;99.90;;;;;;10201916;29;20044;-50
2021/03/10 08:00:09;;;;;;;22.95;8.93;;;5.00;99.90;;;;;;10204120;28;20132;-50
2021/03/10 08:05:30;;;;;;;18.83;6.63;;;5.10;99.90;;;;;;10205880;28;20051;-50
2021/03/10 08:10:51;;;;;;;15.48;6.47;;;5.20;99.90;;;;;;10203227;28;20044;-50
2021/03/10 08:16:12;;;;;;;20.85;8.52;;;5.20;99.90;;;;;;10210782;28;20119;-50
2021/03/10 08:21:33;;;;;;;20.83;8.40;;;5.30;99.90;;;;;;10198149;28;20036;-50
2021/03/10 08:27:00;;;;;;;20.25;9.07;;;5.30;99.90;;;;;;10203801;28;20047;-50
2021/03/10 08:32:25;;;;;;;22.13;7.90;;;5.40;99.90;;;;;;10201257;28;20039;-50
2021/03/10 08:37:59;;;;;;;22.58;9.18;;;5.50;99.90;;;;;;10204900;28;20044;-50
2021/03/10 08:43:20;;;;;;;24.45;8.65;;;5.60;99.90;;;;;;10202630;29;20039;-50
2021/03/10 08:48:41;;;;;;;28.08;9.27;;;5.80;99.90;;;;;;10205652;28;20028;-50
2021/03/10 08:54:06;;;;;;;20.83;7.53;;;5.80;99.90;;;;;;10201406;29;20123;-49
2021/03/10 08:59:37;;;;;;;24.27;6.80;;;6.00;99.90;;;;;;10193000;28;20155;-50
2021/03/10 09:04:59;;;;;;;17.50;7.00;;;6.10;99.90;;;;;;10212034;28;20043;-50
2021/03/10 09:10:23;;;;;;;13.90;6.47;;;6.00;99.90;;;;;;10209602;29;20472;-50
2021/03/10 09:15:45;;;;;;;21.85;7.18;;;6.10;99.90;;;;;;10209267;28;20055;-50
2021/03/10 09:21:06;;;;;;;32.10;6.50;;;6.20;99.90;;;;;;10212404;28;20113;-50
2021/03/10 09:26:40;;;;;;;17.27;6.72;;;6.30;99.90;;;;;;10207014;28;20051;-50
2021/03/10 09:32:03;;;;;;;17.98;5.82;;;6.30;99.90;;;;;;10207832;29;20043;-50
2021/03/10 09:37:25;;;;;;;16.15;6.15;;;6.40;99.90;;;;;;10207491;28;20077;-50
2021/03/10 09:42:57;;;;;;;16.73;5.72;;;6.50;99.90;;;;;;10193825;29;20043;-50
2021/03/10 09:48:32;;;;;;;14.80;5.68;;;6.50;99.90;;;;;;10206290;29;20031;-50
2021/03/10 09:53:53;;;;;;;16.30;6.25;;;6.70;99.90;;;;;;10212069;28;20448;-49
2021/03/10 09:59:14;;;;;;;17.15;5.05;;;6.70;99.90;;;;;;10210740;29;20663;-50
2021/03/10 10:04:35;;;;;;;12.80;5.05;;;6.80;99.90;;;;;;10208369;28;20055;-50
2021/03/10 10:09:57;;;;;;;14.85;6.13;;;6.90;99.90;;;;;;10204775;28;20035;-50
2021/03/10 10:15:21;;;;;;;15.32;4.47;;;7.20;99.90;;;;;;10206743;28;20923;-49
2021/03/10 10:20:42;;;;;;;15.98;5.68;;;7.30;99.90;;;;;;10210459;28;20039;-49
2021/03/10 10:26:03;;;;;;;12.77;4.82;;;7.40;99.90;;;;;;10210737;28;20497;-50
2021/03/10 10:31:24;;;;;;;10.13;4.57;;;7.50;99.90;;;;;;10205381;28;20534;-50
2021/03/10 10:36:45;;;;;;;17.48;4.75;;;7.70;99.90;;;;;;10195824;29;20043;-49
2021/03/10 10:42:07;;;;;;;6.30;3.35;;;7.70;99.90;;;;;;10207351;29;20042;-50
2021/03/10 10:47:28;;;;;;;9.93;3.92;;;7.80;99.90;;;;;;10203707;29;20521;-50
2021/03/10 10:52:49;;;;;;;9.25;3.63;;;7.80;99.90;;;;;;10204867;28;20043;-49
2021/03/10 10:58:10;;;;;;;12.77;4.22;;;8.00;99.90;;;;;;10203179;28;20396;-49
2021/03/10 11:03:31;;;;;;;11.60;4.13;;;8.00;99.90;;;;;;10192427;28;20039;-49
2021/03/10 11:08:52;;;;;;;11.95;3.63;;;8.20;99.90;;;;;;10208846;28;20039;-49
2021/03/10 11:14:13;;;;;;;9.60;3.85;;;8.20;99.90;;;;;;10205186;28;20079;-49
2021/03/10 11:19:35;;;;;;;10.90;4.35;;;8.20;99.90;;;;;;10204078;28;20035;-49
2021/03/10 11:24:56;;;;;;;9.32;3.60;;;8.20;99.90;;;;;;10204187;28;20327;-49
2021/03/10 11:30:18;;;;;;;11.68;3.95;;;8.10;99.90;;;;;;10205958;28;20035;-49
2021/03/10 11:35:39;;;;;;;13.20;4.47;;;8.30;99.90;;;;;;10206536;28;20519;-49
2021/03/10 11:41:01;;;;;;;10.60;3.45;;;8.30;99.90;;;;;;10195291;29;20064;-49
2021/03/10 11:46:22;;;;;;;10.40;5.07;;;8.40;99.90;;;;;;10214046;28;20032;-49
2021/03/10 11:51:43;;;;;;;9.13;3.72;;;8.50;99.90;;;;;;10207666;28;20619;-49
2021/03/10 11:57:04;;;;;;;8.25;3.25;;;8.70;99.90;;;;;;10207679;28;20048;-49
2021/03/10 12:02:25;;;;;;;8.23;4.50;;;8.80;99.90;;;;;;10209806;28;20051;-49
2021/03/10 12:07:47;;;;;;;10.70;4.22;;;9.10;99.90;;;;;;10200422;28;20063;-49
2021/03/10 12:13:09;;;;;;;11.68;4.03;;;9.30;99.90;;;;;;10195158;28;20073;-49
2021/03/10 12:18:30;;;;;;;13.35;4.22;;;9.40;99.90;;;;;;10196152;28;20043;-49
2021/03/10 12:23:51;;;;;;;13.38;4.07;;;9.30;99.90;;;;;;10202385;28;20039;-49
2021/03/10 12:29:12;;;;;;;10.65;3.25;;;9.40;99.90;;;;;;10200234;28;20551;-49
2021/03/10 12:34:33;;;;;;;10.77;4.30;;;9.40;99.90;;;;;;10203876;29;20110;-49
2021/03/10 12:39:55;;;;;;;11.13;3.97;;;9.70;99.90;;;;;;10197323;28;20047;-49
2021/03/10 12:45:17;;;;;;;10.88;3.88;;;9.80;99.90;;;;;;10211093;28;20511;-49
2021/03/10 12:50:39;;;;;;;9.45;3.45;;;9.90;99.90;;;;;;10214944;28;20038;-49
2021/03/10 12:56:00;;;;;;;10.10;3.97;;;9.90;99.90;;;;;;10209412;28;20451;-49
2021/03/10 13:01:21;;;;;;;10.30;3.97;;;9.80;99.90;;;;;;10196661;28;20031;-49
2021/03/10 13:06:43;;;;;;;15.02;4.00;;;9.70;99.90;;;;;;10209465;28;20087;-49
2021/03/10 13:12:04;;;;;;;12.98;4.25;;;9.70;99.90;;;;;;10209150;28;20071;-49
2021/03/10 13:17:25;;;;;;;9.27;3.60;;;9.60;99.90;;;;;;10207363;29;20065;-49
2021/03/10 13:22:46;;;;;;;10.45;3.40;;;9.60;99.90;;;;;;10212794;28;20039;-49
2021/03/10 13:28:07;;;;;;;7.60;3.38;;;9.70;99.90;;;;;;10212391;28;20042;-49
2021/03/10 13:33:28;;;;;;;8.93;3.05;;;9.80;99.90;;;;;;10205321;28;20056;-49
2021/03/10 13:38:50;;;;;;;12.30;3.83;;;9.80;99.90;;;;;;10205674;28;20380;-49
2021/03/10 13:44:11;;;;;;;10.70;3.35;;;9.90;99.90;;;;;;10205998;28;20071;-49
2021/03/10 13:49:32;;;;;;;8.73;3.03;;;9.90;99.90;;;;;;10204477;29;20504;-50
2021/03/10 13:54:53;;;;;;;8.95;3.53;;;9.90;99.90;;;;;;10214164;28;20040;-49
2021/03/10 14:00:15;;;;;;;8.80;3.80;;;9.90;99.90;;;;;;10204034;29;20046;-49
2021/03/10 14:05:36;;;;;;;7.30;4.03;;;9.90;99.90;;;;;;10210998;28;20122;-49
2021/03/10 14:10:59;;;;;;;9.63;3.63;;;9.80;99.90;;;;;;10213738;28;20686;-49
2021/03/10 14:16:20;;;;;;;8.73;3.13;;;9.70;99.90;;;;;;10202728;28;20051;-49
2021/03/10 14:21:41;;;;;;;8.25;3.42;;;9.60;99.90;;;;;;10207046;28;20507;-49
2021/03/10 14:27:02;;;;;;;9.32;3.72;;;9.60;99.90;;;;;;10208069;28;20143;-49
2021/03/10 14:32:23;;;;;;;10.02;3.72;;;9.70;99.90;;;;;;10203615;28;20480;-49
2021/03/10 14:37:44;;;;;;;7.32;3.33;;;9.70;99.90;;;;;;10207023;28;20058;-49
2021/03/10 14:43:06;;;;;;;7.72;2.58;;;9.70;99.90;;;;;;10200245;28;20046;-49
2021/03/10 14:48:27;;;;;;;7.95;2.05;;;9.70;99.90;;;;;;10202850;28;20106;-49
2021/03/10 14:53:48;;;;;;;9.45;3.67;;;9.70;99.90;;;;;;10207203;28;20463;-49
2021/03/10 14:59:09;;;;;;;7.80;3.00;;;9.60;99.90;;;;;;10203653;28;20484;-49
2021/03/10 15:04:31;;;;;;;7.40;2.95;;;9.30;99.90;;;;;;10202662;28;21704;-49
2021/03/10 15:09:52;;;;;;;6.78;2.50;;;9.20;99.90;;;;;;10207450;28;20106;-49
2021/03/10 15:15:13;;;;;;;7.82;2.65;;;9.10;99.90;;;;;;10198307;28;20139;-49
2021/03/10 15:20:34;;;;;;;8.18;3.25;;;9.00;99.90;;;;;;10212876;29;20040;-49
2021/03/10 15:25:55;;;;;;;10.65;3.65;;;9.00;99.90;;;;;;10201415;29;20040;-49
2021/03/10 15:31:16;;;;;;;11.00;3.10;;;9.00;99.90;;;;;;10202835;28;20049;-49
2021/03/10 15:36:37;;;;;;;9.77;4.25;;;9.00;99.90;;;;;;10210506;28;20043;-49
2021/03/10 15:41:58;;;;;;;7.68;3.58;;;8.90;99.90;;;;;;10203996;28;20043;-49
2021/03/10 15:47:19;;;;;;;10.98;4.63;;;8.60;99.90;;;;;;10200662;28;20051;-49
2021/03/10 15:52:40;;;;;;;12.32;3.97;;;8.30;99.90;;;;;;10206284;28;20572;-50
2021/03/10 15:58:01;;;;;;;9.60;3.58;;;8.10;99.90;;;;;;10198955;29;20043;-49
2021/03/10 16:03:22;;;;;;;9.38;3.33;;;7.90;99.90;;;;;;10195660;28;20043;-49
2021/03/10 16:08:43;;;;;;;14.73;4.95;;;7.90;99.90;;;;;;10199585;28;20110;-50
2021/03/10 16:14:04;;;;;;;14.05;4.47;;;7.80;99.90;;;;;;10201347;28;20375;-50
2021/03/10 16:19:25;;;;;;;9.70;4.15;;;7.70;99.90;;;;;;10217298;28;20039;-50
2021/03/10 16:24:46;;;;;;;15.82;4.85;;;7.70;99.90;;;;;;10209450;28;20039;-50
2021/03/10 16:30:08;;;;;;;10.32;3.78;;;7.50;99.90;;;;;;10212970;29;20073;-50
2021/03/10 16:35:29;;;;;;;12.70;5.15;;;7.40;99.90;;;;;;10209464;28;20055;-50
2021/03/10 16:40:50;;;;;;;11.52;4.15;;;7.30;99.90;;;;;;10207252;28;20057;-51
2021/03/10 16:46:11;;;;;;;12.77;3.55;;;7.30;99.90;;;;;;10210289;28;20035;-51
2021/03/10 16:51:32;;;;;;;9.63;3.92;;;7.20;99.90;;;;;;10211552;28;20296;-51
2021/03/10 16:56:53;;;;;;;8.98;3.20;;;7.30;99.90;;;;;;10202481;28;20043;-51
2021/03/10 17:02:14;;;;;;;11.75;2.65;;;7.20;99.90;;;;;;10209952;28;20047;-51
2021/03/10 17:07:35;;;;;;;13.88;3.60;;;7.10;99.90;;;;;;10203918;28;20130;-50
2021/03/10 17:12:56;;;;;;;7.88;3.38;;;7.20;99.90;;;;;;10207240;29;20400;-50
2021/03/10 17:18:17;;;;;;;8.50;2.35;;;7.20;99.90;;;;;;10208922;28;20554;-50
2021/03/10 17:23:38;;;;;;;6.68;2.10;;;7.20;99.90;;;;;;10207686;28;20035;-51
2021/03/10 17:28:59;;;;;;;11.43;3.10;;;7.20;99.90;;;;;;10208301;28;20094;-51
2021/03/10 17:34:20;;;;;;;6.70;3.25;;;7.10;99.90;;;;;;10189982;28;20726;-51
2021/03/10 17:39:41;;;;;;;6.78;3.08;;;7.00;99.90;;;;;;10175331;28;20047;-51
2021/03/10 17:45:04;;;;;;;13.38;3.38;;;7.00;99.90;;;;;;10185265;28;20035;-51
2021/03/10 17:50:25;;;;;;;12.07;5.10;;;7.10;99.90;;;;;;10195517;28;20063;-51
2021/03/10 17:55:46;;;;;;;16.13;5.00;;;7.00;99.90;;;;;;10198974;28;20171;-51
2021/03/10 18:01:07;;;;;;;17.77;4.50;;;6.90;99.90;;;;;;10193495;28;20043;-51
2021/03/10 18:06:29;;;;;;;11.30;3.83;;;6.80;99.90;;;;;;10191387;28;20039;-51
2021/03/10 18:11:49;;;;;;;13.95;3.33;;;6.80;99.90;;;;;;10194424;28;20115;-52
2021/03/10 18:17:11;;;;;;;10.75;3.88;;;6.70;99.90;;;;;;10194473;28;20551;-52
2021/03/10 18:22:32;;;;;;;11.23;4.03;;;6.70;99.90;;;;;;10189010;28;20637;-52
2021/03/10 18:27:53;;;;;;;8.68;3.65;;;6.70;99.90;;;;;;10185291;28;20040;-52
2021/03/10 18:33:14;;;;;;;12.65;4.50;;;6.70;99.90;;;;;;10181974;28;20131;-52
2021/03/10 18:38:35;;;;;;;17.58;4.90;;;6.70;99.90;;;;;;10192536;28;20047;-52
2021/03/10 18:43:56;;;;;;;13.65;5.20;;;6.80;99.90;;;;;;10190099;28;20098;-52
2021/03/10 18:49:17;;;;;;;14.50;4.47;;;6.90;99.90;;;;;;10189533;28;20319;-52
2021/03/10 18:54:38;;;;;;;16.73;4.90;;;6.90;99.90;;;;;;10192196;28;20567;-52
2021/03/10 18:59:59;;;;;;;11.48;4.10;;;6.80;99.90;;;;;;10192882;28;20046;-53
2021/03/10 19:05:20;;;;;;;14.63;5.55;;;6.70;99.90;;;;;;10192066;28;20467;-53
2021/03/10 19:10:41;;;;;;;19.52;6.47;;;6.70;99.90;;;;;;10192064;28;20646;-52
2021/03/10 19:16:04;;;;;;;12.45;4.15;;;6.70;99.90;;;;;;10193490;28;20388;-53
2021/03/10 19:21:25;;;;;;;12.63;4.90;;;6.70;99.90;;;;;;10193091;28;20117;-53
2021/03/10 19:26:47;;;;;;;13.25;4.70;;;6.60;99.90;;;;;;10194238;28;20051;-53
2021/03/10 19:32:08;;;;;;;14.32;4.20;;;6.60;99.90;;;;;;10188650;28;20071;-52
2021/03/10 19:37:29;;;;;;;16.15;5.22;;;6.50;99.90;;;;;;10194531;28;20105;-53
2021/03/10 19:42:50;;;;;;;16.17;5.57;;;6.50;99.90;;;;;;10190918;28;20036;-53
2021/03/10 19:48:12;;;;;;;13.82;4.95;;;6.40;99.90;;;;;;10184067;28;20051;-53
2021/03/10 19:53:33;;;;;;;20.00;5.05;;;6.30;99.90;;;;;;10189490;28;20531;-53
2021/03/10 19:58:54;;;;;;;14.65;4.60;;;6.30;99.90;;;;;;10188443;28;20128;-53
2021/03/10 20:04:15;;;;;;;20.05;5.45;;;6.30;99.90;;;;;;10190000;28;20111;-53
2021/03/10 20:09:36;;;;;;;14.75;5.38;;;6.30;99.90;;;;;;10177744;28;20424;-53
2021/03/10 20:14:57;;;;;;;18.50;5.80;;;6.20;99.90;;;;;;10181521;28;20488;-53
2021/03/10 20:20:19;;;;;;;20.02;6.45;;;6.20;99.90;;;;;;10185416;28;20496;-53
2021/03/10 20:25:41;;;;;;;19.60;6.93;;;6.20;99.90;;;;;;10193717;28;20055;-53
2021/03/10 20:31:02;;;;;;;11.88;5.13;;;6.30;99.90;;;;;;10188396;28;20048;-53
2021/03/10 20:36:23;;;;;;;13.02;4.50;;;6.30;99.90;;;;;;10185425;28;20617;-53
2021/03/10 20:41:44;;;;;;;11.68;4.45;;;6.30;99.90;;;;;;10186751;28;20051;-53
2021/03/10 20:47:06;;;;;;;17.35;5.70;;;6.30;99.90;;;;;;10358722;23;20052;-77
2021/03/10 20:52:27;;;;;;;21.63;6.03;;;6.30;99.90;;;;;;10168132;29;20051;-78
2021/03/10 20:57:49;;;;;;;15.02;6.20;;;6.30;99.90;;;;;;10173157;29;20056;-78
2021/03/10 21:03:12;;;;;;;14.52;5.07;;;6.30;99.90;;;;;;10184260;29;20111;-78
2021/03/10 21:08:33;;;;;;;9.57;3.72;;;6.30;99.90;;;;;;10175865;29;20127;-77
2021/03/10 21:13:54;;;;;;;18.40;5.65;;;6.30;99.90;;;;;;10159146;29;20539;-77
2021/03/10 21:19:16;;;;;;;11.35;3.97;;;6.30;99.90;;;;;;10162344;29;20040;-77
2021/03/10 21:24:37;;;;;;;16.95;5.70;;;6.30;99.90;;;;;;10170615;29;20551;-77
2021/03/10 21:29:58;;;;;;;18.23;4.97;;;6.30;99.90;;;;;;10183498;29;20058;-77
2021/03/10 21:35:19;;;;;;;11.07;4.00;;;6.30;99.90;;;;;;10155952;29;20043;-77
2021/03/10 21:40:41;;;;;;;22.27;6.93;;;6.30;99.90;;;;;;10173491;29;20064;-77
2021/03/10 21:46:02;;;;;;;17.83;5.45;;;6.30;99.90;;;;;;10159365;29;20125;-77
2021/03/10 21:51:23;;;;;;;15.50;5.38;;;6.30;99.90;;;;;;10186529;29;20028;-77
2021/03/10 21:56:44;;;;;;;16.40;4.55;;;6.20;99.90;;;;;;10157277;29;20043;-77
2021/03/10 22:02:06;;;;;;;18.90;6.30;;;6.10;99.90;;;;;;10157228;29;20633;-77
2021/03/10 22:07:27;;;;;;;13.55;4.53;;;6.20;99.90;;;;;;10152023;29;20562;-77
2021/03/10 22:12:48;;;;;;;19.13;6.93;;;6.30;99.90;;;;;;10171622;29;20108;-77
2021/03/10 22:18:09;;;;;;;12.32;4.88;;;6.30;99.90;;;;;;10154690;28;20032;-77
2021/03/10 22:23:30;;;;;;;19.27;5.57;;;6.30;99.90;;;;;;10158891;28;20084;-77
2021/03/10 22:28:51;;;;;;;16.42;5.55;;;6.30;99.90;;;;;;10157170;29;20412;-77
2021/03/10 22:34:12;;;;;;;17.35;5.40;;;6.30;99.90;;;;;;10166484;28;20055;-77
2021/03/10 22:39:33;;;;;;;15.77;4.65;;;6.40;99.90;;;;;;10159605;29;20115;-77
2021/03/10 22:44:54;;;;;;;12.85;5.20;;;6.40;99.90;;;;;;10177303;29;20119;-77
2021/03/10 22:50:16;;;;;;;18.38;4.63;;;6.50;99.90;;;;;;10150843;29;20027;-77
2021/03/10 22:55:37;;;;;;;11.85;3.53;;;6.50;99.90;;;;;;10171093;29;20039;-77
2021/03/10 23:00:58;;;;;;;10.95;5.70;;;6.50;99.90;;;;;;10156237;29;20044;-77
2021/03/10 23:06:21;;;;;;;18.45;6.00;;;6.60;99.90;;;;;;10170393;29;20240;-78
2021/03/10 23:11:42;;;;;;;9.98;4.90;;;6.60;99.90;;;;;;10178003;29;20039;-78
2021/03/10 23:17:06;;;;;;;17.85;5.75;;;6.50;99.90;;;;;;10172712;29;20036;-78
2021/03/10 23:22:27;;;;;;;19.42;5.70;;;6.50;99.90;;;;;;10164587;28;20048;-78
2021/03/10 23:27:48;;;;;;;13.18;4.97;;;6.50;99.90;;;;;;10167168;28;20139;-78
2021/03/10 23:33:09;;;;;;;11.02;4.70;;;6.40;99.90;;;;;;10185008;29;20478;-78
2021/03/10 23:38:30;;;;;;;11.90;4.75;;;6.40;99.90;;;;;;10164164;28;20100;-78
2021/03/10 23:43:51;;;;;;;15.68;5.13;;;6.40;99.90;;;;;;10157934;29;20127;-78
2021/03/10 23:49:12;;;;;;;10.10;4.70;;;6.40;99.90;;;;;;10170282;29;20039;-78
2021/03/10 23:54:33;;;;;;;13.75;6.57;;;6.40;99.90;;;;;;10164149;29;20044;-78
2021/03/10 23:59:54;;;;;;;12.95;5.88;;;6.50;99.90;;;;;;10183691;29;20052;-77
